sensor_id;sensor_type;location;lat;lon;timestamp;pressure;altitude;pressure_sealevel;temperature;humidity
30819;BME280;17546;42.674;23.284;2023-05-23T00:01:04;94619.81;;;21.46;46.48
30819;BME280;17546;42.674;23.284;2023-05-23T00:03:33;94613.50;;;21.30;46.87
30819;BME280;17546;42.674;23.284;2023-05-23T00:06:00;94597.50;;;21.33;46.50
30819;BME280;17546;42.674;23.284;2023-05-23T00:08:26;94581.41;;;21.25;46.63
30819;BME280;17546;42.674;23.284;2023-05-23T00:10:51;94587.22;;;21.28;45.99
30819;BME280;17546;42.674;23.284;2023-05-23T00:13:16;94590.59;;;21.26;45.97
30819;BME280;17546;42.674;23.284;2023-05-23T00:15:43;94581.22;;;21.23;46.08
30819;BME280;17546;42.674;23.284;2023-05-23T00:18:09;94595.50;;;21.25;46.11
30819;BME280;17546;42.674;23.284;2023-05-23T00:20:39;94610.84;;;21.32;45.77
30819;BME280;17546;42.674;23.284;2023-05-23T00:23:06;94605.91;;;21.40;46.08
30819;BME280;17546;42.674;23.284;2023-05-23T00:25:32;94584.41;;;21.28;45.81
30819;BME280;17546;42.674;23.284;2023-05-23T00:28:02;94589.41;;;21.37;45.56
30819;BME280;17546;42.674;23.284;2023-05-23T00:30:29;94579.69;;;21.30;45.75
30819;BME280;17546;42.674;23.284;2023-05-23T00:32:55;94593.63;;;21.20;46.08
30819;BME280;17546;42.674;23.284;2023-05-23T00:35:20;94581.50;;;21.10;46.01
30819;BME280;17546;42.674;23.284;2023-05-23T00:37:46;94593.81;;;21.22;45.91
30819;BME280;17546;42.674;23.284;2023-05-23T00:40:14;94606.75;;;21.25;45.89
30819;BME280;17546;42.674;23.284;2023-05-23T00:42:40;94611.69;;;21.17;45.93
30819;BME280;17546;42.674;23.284;2023-05-23T00:45:06;94603.59;;;21.14;46.32
30819;BME280;17546;42.674;23.284;2023-05-23T00:47:32;94580.59;;;21.00;46.19
30819;BME280;17546;42.674;23.284;2023-05-23T00:49:57;94593.84;;;21.15;46.48
30819;BME280;17546;42.674;23.284;2023-05-23T00:52:23;94604.34;;;21.14;46.32
30819;BME280;17546;42.674;23.284;2023-05-23T00:54:49;94537.53;;;20.74;46.34
30819;BME280;17546;42.674;23.284;2023-05-23T00:57:15;94605.31;;;21.17;46.44
30819;BME280;17546;42.674;23.284;2023-05-23T00:59:41;94610.41;;;21.11;46.56
30819;BME280;17546;42.674;23.284;2023-05-23T01:02:07;94585.91;;;20.88;46.23
30819;BME280;17546;42.674;23.284;2023-05-23T01:04:33;94604.41;;;21.07;45.94
30819;BME280;17546;42.674;23.284;2023-05-23T01:07:02;94601.63;;;20.99;46.42
30819;BME280;17546;42.674;23.284;2023-05-23T01:09:27;94612.13;;;20.98;46.54
30819;BME280;17546;42.674;23.284;2023-05-23T01:14:31;94607.84;;;20.90;45.85
30819;BME280;17546;42.674;23.284;2023-05-23T01:17:05;94607.31;;;20.83;46.23
30819;BME280;17546;42.674;23.284;2023-05-23T01:19:57;94614.06;;;20.88;46.24
30819;BME280;17546;42.674;23.284;2023-05-23T01:22:44;94608.13;;;20.69;46.58
30819;BME280;17546;42.674;23.284;2023-05-23T01:25:38;94620.06;;;20.84;46.44
30819;BME280;17546;42.674;23.284;2023-05-23T01:28:13;94610.72;;;20.74;46.69
30819;BME280;17546;42.674;23.284;2023-05-23T01:30:43;94605.50;;;20.71;46.63
30819;BME280;17546;42.674;23.284;2023-05-23T01:33:09;94603.22;;;20.77;46.51
30819;BME280;17546;42.674;23.284;2023-05-23T01:35:39;94596.09;;;20.76;46.49
30819;BME280;17546;42.674;23.284;2023-05-23T01:38:07;94601.53;;;20.81;46.25
30819;BME280;17546;42.674;23.284;2023-05-23T01:40:33;94598.69;;;20.81;45.71
30819;BME280;17546;42.674;23.284;2023-05-23T01:42:59;94598.88;;;20.83;45.62
30819;BME280;17546;42.674;23.284;2023-05-23T01:45:26;94589.94;;;20.54;45.30
30819;BME280;17546;42.674;23.284;2023-05-23T01:47:52;94580.00;;;20.61;45.24
30819;BME280;17546;42.674;23.284;2023-05-23T01:50:18;94597.78;;;20.71;45.46
30819;BME280;17546;42.674;23.284;2023-05-23T01:52:45;94566.88;;;20.48;46.04
30819;BME280;17546;42.674;23.284;2023-05-23T01:55:12;94582.44;;;20.57;46.02
30819;BME280;17546;42.674;23.284;2023-05-23T01:57:40;94567.66;;;20.41;45.91
30819;BME280;17546;42.674;23.284;2023-05-23T02:00:06;94594.25;;;20.55;46.07
30819;BME280;17546;42.674;23.284;2023-05-23T02:02:35;94570.28;;;20.39;45.80
30819;BME280;17546;42.674;23.284;2023-05-23T02:05:00;94580.19;;;20.55;45.81
30819;BME280;17546;42.674;23.284;2023-05-23T02:07:26;94571.38;;;20.43;45.82
30819;BME280;17546;42.674;23.284;2023-05-23T02:09:51;94588.63;;;20.48;45.91
30819;BME280;17546;42.674;23.284;2023-05-23T02:12:17;94587.72;;;20.45;45.91
30819;BME280;17546;42.674;23.284;2023-05-23T02:14:42;94573.31;;;20.33;46.00
30819;BME280;17546;42.674;23.284;2023-05-23T02:17:08;94601.22;;;20.47;46.06
30819;BME280;17546;42.674;23.284;2023-05-23T02:19:36;94582.31;;;20.32;46.06
30819;BME280;17546;42.674;23.284;2023-05-23T02:22:02;94597.81;;;20.48;45.97
30819;BME280;17546;42.674;23.284;2023-05-23T02:24:27;94588.84;;;20.42;46.05
30819;BME280;17546;42.674;23.284;2023-05-23T02:26:53;94575.34;;;20.40;45.71
30819;BME280;17546;42.674;23.284;2023-05-23T02:29:19;94592.41;;;20.58;45.51
30819;BME280;17546;42.674;23.284;2023-05-23T02:31:44;94579.28;;;20.45;45.68
30819;BME280;17546;42.674;23.284;2023-05-23T02:34:09;94572.16;;;20.36;45.59
30819;BME280;17546;42.674;23.284;2023-05-23T02:36:35;94572.53;;;20.40;46.01
30819;BME280;17546;42.674;23.284;2023-05-23T02:39:01;94590.53;;;20.45;45.85
30819;BME280;17546;42.674;23.284;2023-05-23T02:41:27;94574.59;;;20.40;45.81
30819;BME280;17546;42.674;23.284;2023-05-23T02:43:52;94585.09;;;20.47;46.11
30819;BME280;17546;42.674;23.284;2023-05-23T02:46:18;94578.72;;;20.47;45.78
30819;BME280;17546;42.674;23.284;2023-05-23T02:48:43;94574.41;;;20.38;46.04
30819;BME280;17546;42.674;23.284;2023-05-23T02:51:12;94573.31;;;20.33;46.48
30819;BME280;17546;42.674;23.284;2023-05-23T02:53:38;94577.22;;;20.30;46.76
30819;BME280;17546;42.674;23.284;2023-05-23T02:56:04;94588.31;;;20.28;46.97
30819;BME280;17546;42.674;23.284;2023-05-23T02:58:30;94563.22;;;20.15;47.27
30819;BME280;17546;42.674;23.284;2023-05-23T03:00:56;94569.19;;;20.27;46.92
30819;BME280;17546;42.674;23.284;2023-05-23T03:03:21;94588.66;;;20.32;46.91
30819;BME280;17546;42.674;23.284;2023-05-23T03:05:51;94591.28;;;20.30;47.57
30819;BME280;17546;42.674;23.284;2023-05-23T03:08:16;94591.84;;;20.36;47.48
30819;BME280;17546;42.674;23.284;2023-05-23T03:10:41;94569.00;;;20.17;47.95
30819;BME280;17546;42.674;23.284;2023-05-23T03:13:07;94571.44;;;20.28;47.71
30819;BME280;17546;42.674;23.284;2023-05-23T03:15:32;94569.16;;;20.34;47.63
30819;BME280;17546;42.674;23.284;2023-05-23T03:17:58;94598.41;;;20.47;47.53
30819;BME280;17546;42.674;23.284;2023-05-23T03:20:23;94591.13;;;20.36;47.69
30819;BME280;17546;42.674;23.284;2023-05-23T03:22:48;94579.88;;;20.28;47.64
30819;BME280;17546;42.674;23.284;2023-05-23T03:25:14;94580.41;;;20.42;47.38
30819;BME280;17546;42.674;23.284;2023-05-23T03:27:40;94583.41;;;20.36;46.96
30819;BME280;17546;42.674;23.284;2023-05-23T03:30:06;94575.75;;;20.29;47.10
30819;BME280;17546;42.674;23.284;2023-05-23T03:32:32;94597.28;;;20.34;47.40
30819;BME280;17546;42.674;23.284;2023-05-23T03:34:57;94596.41;;;20.24;47.65
30819;BME280;17546;42.674;23.284;2023-05-23T03:37:22;94578.97;;;20.18;47.65
30819;BME280;17546;42.674;23.284;2023-05-23T03:39:51;94604.81;;;20.16;48.26
30819;BME280;17546;42.674;23.284;2023-05-23T03:42:17;94607.09;;;20.18;48.28
30819;BME280;17546;42.674;23.284;2023-05-23T03:44:42;94595.84;;;20.18;48.09
30819;BME280;17546;42.674;23.284;2023-05-23T03:47:07;94609.09;;;20.40;47.71
30819;BME280;17546;42.674;23.284;2023-05-23T03:49:33;94615.31;;;20.31;47.88
30819;BME280;17546;42.674;23.284;2023-05-23T03:51:59;94606.31;;;20.25;48.02
30819;BME280;17546;42.674;23.284;2023-05-23T03:54:24;94615.34;;;20.16;48.23
30819;BME280;17546;42.674;23.284;2023-05-23T03:56:50;94622.06;;;20.20;47.79
30819;BME280;17546;42.674;23.284;2023-05-23T03:59:18;94620.59;;;20.12;48.29
30819;BME280;17546;42.674;23.284;2023-05-23T04:01:43;94620.59;;;20.12;48.42
30819;BME280;17546;42.674;23.284;2023-05-23T04:04:08;94613.81;;;19.99;48.79
30819;BME280;17546;42.674;23.284;2023-05-23T04:06:34;94624.31;;;20.14;48.58
30819;BME280;17546;42.674;23.284;2023-05-23T04:08:59;94615.50;;;20.26;48.49
30819;BME280;17546;42.674;23.284;2023-05-23T04:11:26;94604.25;;;20.10;48.65
30819;BME280;17546;42.674;23.284;2023-05-23T04:13:51;94598.66;;;20.10;48.88
30819;BME280;17546;42.674;23.284;2023-05-23T04:16:17;94620.59;;;20.12;49.44
30819;BME280;17546;42.674;23.284;2023-05-23T04:18:43;94611.59;;;20.13;49.09
30819;BME280;17546;42.674;23.284;2023-05-23T04:21:11;94610.66;;;20.11;48.94
30819;BME280;17546;42.674;23.284;2023-05-23T04:23:37;94607.66;;;20.09;49.66
30819;BME280;17546;42.674;23.284;2023-05-23T04:26:02;94604.47;;;20.20;49.18
30819;BME280;17546;42.674;23.284;2023-05-23T04:28:30;94604.09;;;20.16;48.97
30819;BME280;17546;42.674;23.284;2023-05-23T04:30:56;94601.66;;;20.05;49.40
30819;BME280;17546;42.674;23.284;2023-05-23T04:33:22;94602.03;;;20.09;48.74
30819;BME280;17546;42.674;23.284;2023-05-23T04:35:48;94593.44;;;19.91;49.11
30819;BME280;17546;42.674;23.284;2023-05-23T04:38:13;94621.16;;;20.18;48.86
30819;BME280;17546;42.674;23.284;2023-05-23T04:40:39;94597.34;;;19.88;49.43
30819;BME280;17546;42.674;23.284;2023-05-23T04:43:04;94612.28;;;19.52;50.32
30819;BME280;17546;42.674;23.284;2023-05-23T04:45:30;94607.84;;;19.72;49.94
30819;BME280;17546;42.674;23.284;2023-05-23T04:47:55;94606.16;;;19.69;49.73
30819;BME280;17546;42.674;23.284;2023-05-23T04:50:25;94632.75;;;19.99;49.50
30819;BME280;17546;42.674;23.284;2023-05-23T04:52:55;94616.09;;;19.86;49.22
30819;BME280;17546;42.674;23.284;2023-05-23T04:55:21;94630.34;;;20.11;48.94
30819;BME280;17546;42.674;23.284;2023-05-23T04:57:47;94637.47;;;19.89;49.28
30819;BME280;17546;42.674;23.284;2023-05-23T05:00:12;94632.59;;;20.05;48.82
30819;BME280;17546;42.674;23.284;2023-05-23T05:02:39;94636.13;;;20.13;49.06
30819;BME280;17546;42.674;23.284;2023-05-23T05:05:05;94641.38;;;20.24;49.20
30819;BME280;17546;42.674;23.284;2023-05-23T05:07:31;94642.34;;;20.11;49.55
30819;BME280;17546;42.674;23.284;2023-05-23T05:09:56;94612.69;;;20.10;49.21
30819;BME280;17546;42.674;23.284;2023-05-23T05:12:22;94641.94;;;20.30;49.28
30819;BME280;17546;42.674;23.284;2023-05-23T05:14:47;94647.94;;;20.42;48.66
30819;BME280;17546;42.674;23.284;2023-05-23T05:17:13;94631.06;;;20.27;48.96
30819;BME280;17546;42.674;23.284;2023-05-23T05:19:38;94627.31;;;20.32;48.95
30819;BME280;17546;42.674;23.284;2023-05-23T05:22:04;94645.66;;;20.40;49.13
30819;BME280;17546;42.674;23.284;2023-05-23T05:24:30;94630.69;;;20.30;49.09
30819;BME280;17546;42.674;23.284;2023-05-23T05:26:57;94632.72;;;20.45;48.94
30819;BME280;17546;42.674;23.284;2023-05-23T05:29:22;94624.28;;;20.53;48.55
30819;BME280;17546;42.674;23.284;2023-05-23T05:31:47;94656.69;;;20.77;48.66
30819;BME280;17546;42.674;23.284;2023-05-23T05:34:14;94640.59;;;20.62;48.98
30819;BME280;17546;42.674;23.284;2023-05-23T05:36:40;94630.09;;;20.55;49.14
30819;BME280;17546;42.674;23.284;2023-05-23T05:39:14;94614.34;;;20.36;49.20
30819;BME280;17546;42.674;23.284;2023-05-23T05:41:40;94652.41;;;20.68;48.95
30819;BME280;17546;42.674;23.284;2023-05-23T05:44:06;94642.09;;;20.63;49.11
30819;BME280;17546;42.674;23.284;2023-05-23T05:46:32;94649.78;;;20.55;49.15
30819;BME280;17546;42.674;23.284;2023-05-23T05:48:57;94636.09;;;20.59;48.81
30819;BME280;17546;42.674;23.284;2023-05-23T05:51:23;94642.66;;;20.61;49.15
30819;BME280;17546;42.674;23.284;2023-05-23T05:53:48;94629.16;;;20.60;49.10
30819;BME280;17546;42.674;23.284;2023-05-23T05:56:14;94654.41;;;20.91;48.56
30819;BME280;17546;42.674;23.284;2023-05-23T05:58:40;94669.28;;;20.68;49.44
30819;BME280;17546;42.674;23.284;2023-05-23T06:01:06;94659.53;;;20.77;48.97
30819;BME280;17546;42.674;23.284;2023-05-23T06:03:32;94639.97;;;20.79;48.69
30819;BME280;17546;42.674;23.284;2023-05-23T06:05:58;94652.28;;;21.07;48.56
30819;BME280;17546;42.674;23.284;2023-05-23T06:08:23;94634.34;;;20.87;49.00
30819;BME280;17546;42.674;23.284;2023-05-23T06:10:49;94659.56;;;21.17;48.80
30819;BME280;17546;42.674;23.284;2023-05-23T06:13:14;94637.28;;;21.04;48.45
30819;BME280;17546;42.674;23.284;2023-05-23T06:15:40;94659.78;;;21.04;48.84
30819;BME280;17546;42.674;23.284;2023-05-23T06:18:05;94663.09;;;21.25;48.39
30819;BME280;17546;42.674;23.284;2023-05-23T06:20:35;94649.19;;;21.28;47.65
30819;BME280;17546;42.674;23.284;2023-05-23T06:23:00;94658.50;;;21.45;47.51
30819;BME280;17546;42.674;23.284;2023-05-23T06:25:29;94661.44;;;21.55;47.87
30819;BME280;17546;42.674;23.284;2023-05-23T06:27:54;94666.28;;;21.62;47.95
30819;BME280;17546;42.674;23.284;2023-05-23T06:30:20;94667.63;;;21.13;48.49
30819;BME280;17546;42.674;23.284;2023-05-23T06:32:47;94647.69;;;21.26;47.70
30819;BME280;17546;42.674;23.284;2023-05-23T06:35:12;94662.59;;;21.52;47.50
30819;BME280;17546;42.674;23.284;2023-05-23T06:37:38;94653.44;;;21.44;47.83
30819;BME280;17546;42.674;23.284;2023-05-23T06:40:11;94637.59;;;21.56;47.86
30819;BME280;17546;42.674;23.284;2023-05-23T06:42:39;94639.56;;;21.71;47.81
30819;BME280;17546;42.674;23.284;2023-05-23T06:45:04;94640.88;;;21.95;49.17
30819;BME280;17546;42.674;23.284;2023-05-23T06:47:30;94639.09;;;22.33;48.63
30819;BME280;17546;42.674;23.284;2023-05-23T06:49:55;94646.38;;;22.61;47.93
30819;BME280;17546;42.674;23.284;2023-05-23T06:52:20;94641.41;;;22.69;47.36
30819;BME280;17546;42.674;23.284;2023-05-23T06:54:46;94594.47;;;22.91;46.88
30819;BME280;17546;42.674;23.284;2023-05-23T06:57:11;94622.66;;;23.26;45.55
30819;BME280;17546;42.674;23.284;2023-05-23T06:59:37;94629.25;;;23.56;45.97
30819;BME280;17546;42.674;23.284;2023-05-23T07:02:02;94616.81;;;23.96;44.09
30819;BME280;17546;42.674;23.284;2023-05-23T07:04:27;94625.53;;;24.27;44.30
30819;BME280;17546;42.674;23.284;2023-05-23T07:06:53;94639.03;;;24.56;42.82
30819;BME280;17546;42.674;23.284;2023-05-23T07:09:18;94636.84;;;24.83;43.11
30819;BME280;17546;42.674;23.284;2023-05-23T07:11:44;94616.03;;;24.32;42.23
30819;BME280;17546;42.674;23.284;2023-05-23T07:14:09;94629.53;;;24.90;42.84
30819;BME280;17546;42.674;23.284;2023-05-23T07:16:34;94618.94;;;25.29;41.63
30819;BME280;17546;42.674;23.284;2023-05-23T07:19:00;94604.84;;;25.51;41.95
30819;BME280;17546;42.674;23.284;2023-05-23T07:21:26;94615.97;;;25.88;41.03
30819;BME280;17546;42.674;23.284;2023-05-23T07:23:51;94623.53;;;25.95;40.47
30819;BME280;17546;42.674;23.284;2023-05-23T07:26:16;94613.41;;;25.92;40.79
30819;BME280;17546;42.674;23.284;2023-05-23T07:28:42;94607.41;;;26.29;40.32
30819;BME280;17546;42.674;23.284;2023-05-23T07:31:07;94618.69;;;26.70;40.00
30819;BME280;17546;42.674;23.284;2023-05-23T07:33:34;94616.75;;;26.72;38.51
30819;BME280;17546;42.674;23.284;2023-05-23T07:35:59;94609.75;;;26.85;38.33
30819;BME280;17546;42.674;23.284;2023-05-23T07:38:27;94604.56;;;27.15;38.18
30819;BME280;17546;42.674;23.284;2023-05-23T07:40:53;94600.00;;;27.43;38.23
30819;BME280;17546;42.674;23.284;2023-05-23T07:43:18;94598.53;;;27.54;37.71
30819;BME280;17546;42.674;23.284;2023-05-23T07:45:44;94604.75;;;26.95;37.21
30819;BME280;17546;42.674;23.284;2023-05-23T07:48:09;94598.66;;;27.56;37.41
30819;BME280;17546;42.674;23.284;2023-05-23T07:50:38;94614.16;;;27.31;36.92
30819;BME280;17546;42.674;23.284;2023-05-23T07:53:03;94606.09;;;27.61;36.81
30819;BME280;17546;42.674;23.284;2023-05-23T07:55:29;94594.91;;;27.41;37.06
30819;BME280;17546;42.674;23.284;2023-05-23T07:57:54;94586.31;;;27.63;37.42
30819;BME280;17546;42.674;23.284;2023-05-23T08:00:20;94589.06;;;27.85;36.61
30819;BME280;17546;42.674;23.284;2023-05-23T08:02:46;94582.78;;;27.86;36.38
30819;BME280;17546;42.674;23.284;2023-05-23T08:05:11;94599.75;;;26.84;37.45
30819;BME280;17546;42.674;23.284;2023-05-23T08:07:36;94572.75;;;27.28;38.59
30819;BME280;17546;42.674;23.284;2023-05-23T08:10:02;94586.84;;;27.26;37.33
30819;BME280;17546;42.674;23.284;2023-05-23T08:12:27;94572.38;;;27.00;37.60
30819;BME280;17546;42.674;23.284;2023-05-23T08:14:53;94570.09;;;26.87;37.69
30819;BME280;17546;42.674;23.284;2023-05-23T08:17:18;94596.16;;;27.38;37.34
30819;BME280;17546;42.674;23.284;2023-05-23T08:19:44;94596.84;;;27.84;37.16
30819;BME280;17546;42.674;23.284;2023-05-23T08:22:09;94580.28;;;28.04;37.12
30819;BME280;17546;42.674;23.284;2023-05-23T08:24:34;94592.91;;;28.48;37.89
30819;BME280;17546;42.674;23.284;2023-05-23T08:27:00;94571.84;;;27.71;35.20
30819;BME280;17546;42.674;23.284;2023-05-23T08:29:25;94587.91;;;27.66;35.78
30819;BME280;17546;42.674;23.284;2023-05-23T08:31:52;94580.28;;;28.04;36.04
30819;BME280;17546;42.674;23.284;2023-05-23T08:34:17;94589.31;;;28.48;35.63
30819;BME280;17546;42.674;23.284;2023-05-23T08:36:43;94592.88;;;27.77;35.73
30819;BME280;17546;42.674;23.284;2023-05-23T08:39:08;94582.75;;;28.45;35.70
30819;BME280;17546;42.674;23.284;2023-05-23T08:41:34;94568.84;;;28.63;35.49
30819;BME280;17546;42.674;23.284;2023-05-23T08:43:59;94575.78;;;29.09;35.63
30819;BME280;17546;42.674;23.284;2023-05-23T08:46:25;94576.81;;;28.41;35.13
30819;BME280;17546;42.674;23.284;2023-05-23T08:48:54;94582.94;;;28.73;35.09
30819;BME280;17546;42.674;23.284;2023-05-23T08:51:21;94574.63;;;28.89;34.21
30819;BME280;17546;42.674;23.284;2023-05-23T08:53:49;94566.38;;;28.57;34.20
30819;BME280;17546;42.674;23.284;2023-05-23T08:56:15;94580.09;;;29.10;33.81
30819;BME280;17546;42.674;23.284;2023-05-23T08:58:42;94577.19;;;28.00;34.48
30819;BME280;17546;42.674;23.284;2023-05-23T09:01:08;94572.59;;;28.30;34.55
30819;BME280;17546;42.674;23.284;2023-05-23T09:03:35;94578.03;;;28.61;35.00
30819;BME280;17546;42.674;23.284;2023-05-23T09:06:07;94557.28;;;28.73;33.64
30819;BME280;17546;42.674;23.284;2023-05-23T09:08:34;94575.34;;;29.27;33.26
30819;BME280;17546;42.674;23.284;2023-05-23T09:11:01;94585.25;;;29.77;34.47
30819;BME280;17546;42.674;23.284;2023-05-23T09:13:31;94555.03;;;29.99;33.92
30819;BME280;17546;42.674;23.284;2023-05-23T09:16:08;94553.69;;;30.14;32.74
30819;BME280;17546;42.674;23.284;2023-05-23T09:18:38;94570.72;;;30.40;32.28
30819;BME280;17546;42.674;23.284;2023-05-23T09:21:04;94576.00;;;30.59;30.64
30819;BME280;17546;42.674;23.284;2023-05-23T09:23:34;94566.84;;;30.91;30.37
30819;BME280;17546;42.674;23.284;2023-05-23T09:26:12;94565.56;;;30.36;30.04
30819;BME280;17546;42.674;23.284;2023-05-23T09:28:38;94546.06;;;30.60;29.92
30819;BME280;17546;42.674;23.284;2023-05-23T09:31:06;94558.19;;;30.88;30.28
30819;BME280;17546;42.674;23.284;2023-05-23T09:33:48;94553.16;;;31.03;27.44
30819;BME280;17546;42.674;23.284;2023-05-23T09:36:17;94549.16;;;31.24;27.24
30819;BME280;17546;42.674;23.284;2023-05-23T09:38:44;94555.28;;;31.02;28.40
30819;BME280;17546;42.674;23.284;2023-05-23T09:41:11;94555.31;;;30.88;28.27
30819;BME280;17546;42.674;23.284;2023-05-23T09:43:48;94553.59;;;30.97;26.83
30819;BME280;17546;42.674;23.284;2023-05-23T09:46:14;94545.31;;;31.03;26.88
30819;BME280;17546;42.674;23.284;2023-05-23T09:48:45;94552.50;;;30.19;27.97
30819;BME280;17546;42.674;23.284;2023-05-23T09:51:11;94524.16;;;29.96;27.28
30819;BME280;17546;42.674;23.284;2023-05-23T09:53:37;94529.13;;;30.51;27.77
30819;BME280;17546;42.674;23.284;2023-05-23T09:56:03;94527.16;;;30.69;28.06
30819;BME280;17546;42.674;23.284;2023-05-23T09:58:29;94544.34;;;30.55;27.52
30819;BME280;17546;42.674;23.284;2023-05-23T10:01:01;94519.28;;;29.98;26.31
30819;BME280;17546;42.674;23.284;2023-05-23T10:03:49;94540.56;;;30.23;27.16
30819;BME280;17546;42.674;23.284;2023-05-23T10:13:59;94533.59;;;30.12;25.97
30819;BME280;17546;42.674;23.284;2023-05-23T10:16:29;94516.78;;;30.32;28.67
30819;BME280;17546;42.674;23.284;2023-05-23T10:19:02;94514.50;;;30.58;25.97
30819;BME280;17546;42.674;23.284;2023-05-23T10:21:35;94514.22;;;30.38;26.63
30819;BME280;17546;42.674;23.284;2023-05-23T10:24:04;94507.56;;;30.34;26.79
30819;BME280;17546;42.674;23.284;2023-05-23T10:26:30;94521.41;;;30.39;25.44
30819;BME280;17546;42.674;23.284;2023-05-23T10:28:56;94514.75;;;30.35;26.42
30819;BME280;17546;42.674;23.284;2023-05-23T10:31:23;94528.69;;;30.56;25.11
30819;BME280;17546;42.674;23.284;2023-05-23T10:33:52;94509.13;;;30.94;24.21
30819;BME280;17546;42.674;23.284;2023-05-23T10:36:29;94521.22;;;31.22;25.14
30819;BME280;17546;42.674;23.284;2023-05-23T10:39:03;94489.22;;;30.96;25.00
30819;BME280;17546;42.674;23.284;2023-05-23T10:41:38;94511.16;;;31.37;24.48
30819;BME280;17546;42.674;23.284;2023-05-23T10:44:28;94511.81;;;31.36;25.84
30819;BME280;17546;42.674;23.284;2023-05-23T10:46:56;94482.75;;;31.41;24.46
30819;BME280;17546;42.674;23.284;2023-05-23T10:52:08;94498.34;;;31.38;24.99
30819;BME280;17546;42.674;23.284;2023-05-23T10:54:51;94508.84;;;30.31;24.03
30819;BME280;17546;42.674;23.284;2023-05-23T10:57:19;94499.25;;;30.67;26.34
30819;BME280;17546;42.674;23.284;2023-05-23T10:59:48;94484.13;;;30.95;25.04
30819;BME280;17546;42.674;23.284;2023-05-23T11:02:19;94498.66;;;31.15;25.24
30819;BME280;17546;42.674;23.284;2023-05-23T11:07:45;94469.69;;;31.06;25.28
30819;BME280;17546;42.674;23.284;2023-05-23T11:10:12;94480.56;;;30.94;23.28
30819;BME280;17546;42.674;23.284;2023-05-23T11:12:43;94480.06;;;30.70;24.23
30819;BME280;17546;42.674;23.284;2023-05-23T11:17:52;94504.78;;;30.22;25.27
30819;BME280;17546;42.674;23.284;2023-05-23T11:20:19;94502.78;;;30.24;24.18
30819;BME280;17546;42.674;23.284;2023-05-23T11:23:01;94485.84;;;30.56;23.95
30819;BME280;17546;42.674;23.284;2023-05-23T11:25:50;94486.53;;;30.71;27.07
30819;BME280;17546;42.674;23.284;2023-05-23T11:28:16;94464.94;;;30.97;24.91
30819;BME280;17546;42.674;23.284;2023-05-23T11:30:42;94476.47;;;30.69;26.33
30819;BME280;17546;42.674;23.284;2023-05-23T11:33:10;94468.47;;;30.82;23.38
30819;BME280;17546;42.674;23.284;2023-05-23T11:35:40;94474.53;;;30.03;23.83
30819;BME280;17546;42.674;23.284;2023-05-23T11:38:08;94481.59;;;30.57;23.73
30819;BME280;17546;42.674;23.284;2023-05-23T11:40:35;94473.59;;;30.26;23.93
30819;BME280;17546;42.674;23.284;2023-05-23T11:43:06;94471.75;;;29.50;24.66
30819;BME280;17546;42.674;23.284;2023-05-23T11:45:33;94479.09;;;29.80;24.80
30819;BME280;17546;42.674;23.284;2023-05-23T11:48:13;94459.72;;;29.37;24.72
30819;BME280;17546;42.674;23.284;2023-05-23T11:50:50;94462.81;;;29.69;24.32
30819;BME280;17546;42.674;23.284;2023-05-23T11:53:17;94464.13;;;30.51;23.42
30819;BME280;17546;42.674;23.284;2023-05-23T11:55:52;94456.84;;;30.78;23.77
30819;BME280;17546;42.674;23.284;2023-05-23T11:58:20;94454.44;;;31.02;23.74
30819;BME280;17546;42.674;23.284;2023-05-23T12:00:45;94435.97;;;30.02;24.07
30819;BME280;17546;42.674;23.284;2023-05-23T12:03:11;94460.28;;;30.17;24.15
30819;BME280;17546;42.674;23.284;2023-05-23T12:05:37;94449.78;;;30.21;23.53
30819;BME280;17546;42.674;23.284;2023-05-23T12:08:02;94434.00;;;30.48;25.12
30819;BME280;17546;42.674;23.284;2023-05-23T12:10:28;94446.09;;;30.62;24.49
30819;BME280;17546;42.674;23.284;2023-05-23T12:12:53;94441.38;;;30.53;23.99
30819;BME280;17546;42.674;23.284;2023-05-23T12:15:24;94420.97;;;30.75;24.84
30819;BME280;17546;42.674;23.284;2023-05-23T12:17:52;94409.69;;;30.93;25.40
30819;BME280;17546;42.674;23.284;2023-05-23T12:20:18;94428.03;;;31.33;25.27
30819;BME280;17546;42.674;23.284;2023-05-23T12:22:44;94429.59;;;31.36;25.08
30819;BME280;17546;42.674;23.284;2023-05-23T12:25:10;94424.34;;;31.46;23.30
30819;BME280;17546;42.674;23.284;2023-05-23T12:27:37;94427.53;;;31.70;23.40
30819;BME280;17546;42.674;23.284;2023-05-23T12:30:07;94423.59;;;31.62;24.09
30819;BME280;17546;42.674;23.284;2023-05-23T12:32:43;94422.63;;;31.89;23.23
30819;BME280;17546;42.674;23.284;2023-05-23T12:35:12;94416.06;;;30.91;23.46
30819;BME280;17546;42.674;23.284;2023-05-23T12:37:45;94415.09;;;31.16;23.61
30819;BME280;17546;42.674;23.284;2023-05-23T12:40:15;94401.25;;;31.26;24.37
30819;BME280;17546;42.674;23.284;2023-05-23T12:42:50;94418.97;;;31.23;23.74
30819;BME280;17546;42.674;23.284;2023-05-23T12:45:17;94394.53;;;30.74;24.95
30819;BME280;17546;42.674;23.284;2023-05-23T12:47:42;94397.16;;;31.00;23.61
30819;BME280;17546;42.674;23.284;2023-05-23T12:50:08;94411.69;;;31.36;23.66
30819;BME280;17546;42.674;23.284;2023-05-23T12:52:35;94388.97;;;31.08;23.06
30819;BME280;17546;42.674;23.284;2023-05-23T12:55:02;94406.31;;;31.12;23.67
30819;BME280;17546;42.674;23.284;2023-05-23T12:57:27;94392.47;;;31.06;24.26
30819;BME280;17546;42.674;23.284;2023-05-23T12:59:52;94397.34;;;31.20;23.38
30819;BME280;17546;42.674;23.284;2023-05-23T13:02:18;94380.84;;;31.34;22.44
30819;BME280;17546;42.674;23.284;2023-05-23T13:04:43;94382.53;;;30.78;22.54
30819;BME280;17546;42.674;23.284;2023-05-23T13:07:09;94362.59;;;30.94;22.00
30819;BME280;17546;42.674;23.284;2023-05-23T13:09:34;94394.53;;;30.74;21.45